createdAt,value
2019-05-05T00:00:46.469Z,2.40
2019-05-05T00:03:26.505Z,3.30
2019-05-05T00:05:54.820Z,3.00
2019-05-05T00:08:21.028Z,2.80
2019-05-05T00:10:58.306Z,3.57
2019-05-05T00:13:29.147Z,3.03
2019-05-05T00:16:09.230Z,2.63
2019-05-05T00:18:35.342Z,3.07
2019-05-05T00:21:01.456Z,3.00
2019-05-05T00:23:27.587Z,2.40
2019-05-05T00:25:55.263Z,3.23
2019-05-05T00:28:21.571Z,3.00
2019-05-05T00:30:47.791Z,2.70
2019-05-05T00:33:14.471Z,3.00
2019-05-05T00:35:41.046Z,2.33
2019-05-05T00:38:07.370Z,2.70
2019-05-05T00:40:35.304Z,2.77
2019-05-05T00:43:01.522Z,3.80
2019-05-05T00:45:28.778Z,3.40
2019-05-05T00:48:05.887Z,3.20
2019-05-05T00:50:34.209Z,3.87
2019-05-05T00:53:00.255Z,3.67
2019-05-05T00:55:26.483Z,3.67
2019-05-05T00:57:54.658Z,3.20
2019-05-05T01:00:26.917Z,4.13
2019-05-05T01:02:54.351Z,3.37
2019-05-05T01:05:28.055Z,3.17
2019-05-05T01:07:54.800Z,1.70
2019-05-05T01:10:20.985Z,2.20
2019-05-05T01:12:47.130Z,3.27
2019-05-05T01:15:14.980Z,4.27
2019-05-05T01:17:41.336Z,4.03
2019-05-05T01:20:08.283Z,4.27
2019-05-05T01:22:34.508Z,5.77
2019-05-05T01:25:00.641Z,4.87
2019-05-05T01:27:26.966Z,3.67
2019-05-05T01:29:54.593Z,4.07
2019-05-05T01:32:24.638Z,4.10
2019-05-05T01:34:50.977Z,5.00
2019-05-05T01:37:19.174Z,4.10
2019-05-05T01:40:04.934Z,4.73
2019-05-05T01:42:31.409Z,5.17
2019-05-05T01:44:57.607Z,4.20
2019-05-05T01:47:25.413Z,4.23
2019-05-05T01:49:51.761Z,4.27
2019-05-05T01:52:17.873Z,4.93
2019-05-05T01:54:44.691Z,5.47
2019-05-05T01:57:11.162Z,4.60
2019-05-05T01:59:37.785Z,5.63
2019-05-05T02:02:04.392Z,5.43
2019-05-05T02:04:30.737Z,5.33
2019-05-05T02:06:57.071Z,5.00
2019-05-05T02:09:24.923Z,5.97
2019-05-05T02:11:51.459Z,5.20
2019-05-05T02:14:17.862Z,6.67
2019-05-05T02:16:45.204Z,5.53
2019-05-05T02:19:11.502Z,5.70
2019-05-05T02:21:37.811Z,5.27
2019-05-05T02:24:05.196Z,4.63
2019-05-05T02:26:31.578Z,5.60
2019-05-05T02:28:59.605Z,5.00
2019-05-05T02:31:39.811Z,5.60
2019-05-05T02:34:06.039Z,5.70
2019-05-05T02:36:32.256Z,5.60
2019-05-05T02:38:58.920Z,5.83
2019-05-05T02:41:25.562Z,5.17
2019-05-05T02:43:55.497Z,5.40
2019-05-05T02:46:25.651Z,5.00
2019-05-05T02:48:55.119Z,5.77
2019-05-05T02:51:25.707Z,5.20
2019-05-05T02:53:54.363Z,6.20
2019-05-05T02:56:27.736Z,5.70
2019-05-05T02:58:57.858Z,7.30
2019-05-05T03:01:28.736Z,6.33
2019-05-05T03:03:56.850Z,5.97
2019-05-05T03:06:23.806Z,6.23
2019-05-05T03:08:51.896Z,6.30
2019-05-05T03:11:18.607Z,5.40
2019-05-05T03:13:47.569Z,5.30
2019-05-05T03:16:23.731Z,5.83
2019-05-05T03:18:50.335Z,5.83
2019-05-05T03:21:18.247Z,5.17
2019-05-05T03:23:44.750Z,5.17
2019-05-05T03:26:14.046Z,5.20
2019-05-05T03:28:45.294Z,4.20
2019-05-05T03:31:15.111Z,4.57
2019-05-05T03:33:40.119Z,4.37
2019-05-05T03:36:06.668Z,4.93
2019-05-05T03:38:33.693Z,5.43
2019-05-05T03:41:03.577Z,5.17
2019-05-05T03:43:48.309Z,5.73
2019-05-05T03:46:14.647Z,4.70
2019-05-05T03:48:41.067Z,4.73
2019-05-05T03:51:18.303Z,3.27
2019-05-05T03:53:35.514Z,3.77
2019-05-05T03:56:03.880Z,4.10
2019-05-05T03:58:30.754Z,3.83
2019-05-05T04:01:23.913Z,3.73
2019-05-05T04:03:50.099Z,3.67
2019-05-05T04:06:18.296Z,3.70
2019-05-05T04:08:44.578Z,4.30
2019-05-05T04:11:10.758Z,3.70
2019-05-05T04:13:37.094Z,4.33
2019-05-05T04:16:08.113Z,4.47
2019-05-05T04:18:36.443Z,5.23
2019-05-05T04:21:03.974Z,5.63
2019-05-05T04:23:30.316Z,5.30
2019-05-05T04:25:56.566Z,5.73
2019-05-05T04:28:24.086Z,5.97
2019-05-05T04:30:50.390Z,6.03
2019-05-05T04:33:16.511Z,4.87
2019-05-05T04:35:44.399Z,5.47
2019-05-05T04:38:10.787Z,5.53
2019-05-05T04:40:37.007Z,5.00
2019-05-05T04:43:03.876Z,4.93
2019-05-05T04:45:30.227Z,5.80
2019-05-05T04:47:58.267Z,5.37
2019-05-05T04:50:29.350Z,4.30
2019-05-05T04:52:57.421Z,5.00
2019-05-05T04:55:24.486Z,4.57
2019-05-05T04:57:50.756Z,4.47
2019-05-05T05:00:17.114Z,4.80
2019-05-05T05:02:57.347Z,4.43
2019-05-05T05:05:25.385Z,4.33
2019-05-05T05:07:51.613Z,4.90
2019-05-05T05:10:17.745Z,4.73
2019-05-05T05:12:44.023Z,4.77
2019-05-05T05:15:10.544Z,4.53
2019-05-05T05:17:44.413Z,5.33
2019-05-05T05:20:11.018Z,4.03
2019-05-05T05:22:37.114Z,4.33
2019-05-05T05:25:04.642Z,4.43
2019-05-05T05:27:30.789Z,4.10
2019-05-05T05:29:56.906Z,5.20
2019-05-05T05:32:24.711Z,5.27
2019-05-05T05:34:51.056Z,4.10
2019-05-05T05:37:17.374Z,5.80
2019-05-05T05:39:45.497Z,5.20
2019-05-05T05:42:13.689Z,5.10
2019-05-05T05:44:58.465Z,5.57
2019-05-05T05:47:29.348Z,4.40
2019-05-05T05:50:14.342Z,4.50
2019-05-05T05:52:40.588Z,4.60
2019-05-05T05:55:06.831Z,4.50
2019-05-05T05:57:34.556Z,4.57
2019-05-05T06:00:01.183Z,3.70
2019-05-05T06:02:27.425Z,3.63
2019-05-05T06:04:54.023Z,3.50
2019-05-05T06:07:20.212Z,3.40
2019-05-05T06:09:46.317Z,3.47
2019-05-05T06:12:14.146Z,2.90
2019-05-05T06:14:40.568Z,3.47
2019-05-05T06:17:06.752Z,4.80
2019-05-05T06:19:33.809Z,5.13
2019-05-05T06:22:00.152Z,3.57
2019-05-05T06:24:26.309Z,3.83
2019-05-05T06:26:54.595Z,2.70
2019-05-05T06:29:20.601Z,4.33
2019-05-05T06:31:46.727Z,2.60
2019-05-05T06:34:13.955Z,2.37
2019-05-05T06:36:40.217Z,2.43
2019-05-05T06:39:06.942Z,2.23
2019-05-05T06:41:35.171Z,3.43
2019-05-05T06:44:06.421Z,3.67
2019-05-05T06:46:40.382Z,3.87
2019-05-05T06:49:06.768Z,4.90
2019-05-05T06:51:33.536Z,3.77
2019-05-05T06:53:59.813Z,5.10
2019-05-05T06:56:26.009Z,4.50
2019-05-05T06:58:53.976Z,3.43
2019-05-05T07:01:20.193Z,3.60
2019-05-05T07:03:46.304Z,3.93
2019-05-05T07:06:14.157Z,4.30
2019-05-05T07:08:40.471Z,4.03
2019-05-05T07:11:07.479Z,4.93
2019-05-05T07:13:36.537Z,3.80
2019-05-05T07:16:04.722Z,4.43
2019-05-05T07:18:31.038Z,3.53
2019-05-05T07:20:57.278Z,3.73
2019-05-05T07:23:24.627Z,2.83
2019-05-05T07:25:50.913Z,2.80
2019-05-05T07:28:17.098Z,2.97
2019-05-05T07:30:44.245Z,3.37
2019-05-05T07:33:10.515Z,2.83
2019-05-05T07:35:52.034Z,2.87
2019-05-05T07:38:06.796Z,3.23
2019-05-05T07:40:34.606Z,3.20
2019-05-05T07:43:00.818Z,3.50
2019-05-05T07:45:27.014Z,4.27
2019-05-05T07:47:54.297Z,4.23
2019-05-05T07:50:31.359Z,3.73
2019-05-05T07:52:48.621Z,2.93
2019-05-05T07:55:14.829Z,4.33
2019-05-05T07:57:41.049Z,4.43
2019-05-05T08:00:08.178Z,4.67
2019-05-05T08:02:34.296Z,3.90
2019-05-05T08:05:00.552Z,3.70
2019-05-05T08:07:26.761Z,4.60
2019-05-05T08:09:53.731Z,4.17
2019-05-05T08:12:20.099Z,3.97
2019-05-05T08:14:46.288Z,3.67
2019-05-05T08:17:30.720Z,3.50
2019-05-05T08:20:03.837Z,3.93
2019-05-05T08:22:29.637Z,3.93
2019-05-05T08:25:06.559Z,3.60
2019-05-05T08:27:53.550Z,3.30
2019-05-05T08:30:37.665Z,2.87
2019-05-05T08:33:04.618Z,3.83
2019-05-05T08:35:31.134Z,3.93
2019-05-05T08:37:57.390Z,4.03
2019-05-05T08:40:24.060Z,3.80
2019-05-05T08:42:50.314Z,4.40
2019-05-05T08:45:16.733Z,4.20
2019-05-05T08:47:43.576Z,3.57
2019-05-05T08:50:10.169Z,4.23
2019-05-05T08:52:36.409Z,3.80
2019-05-05T08:55:04.684Z,4.87
2019-05-05T08:57:30.928Z,4.77
2019-05-05T08:59:57.276Z,3.93
2019-05-05T09:02:24.016Z,3.37
2019-05-05T09:04:50.347Z,2.20
2019-05-05T09:07:16.490Z,4.03
2019-05-05T09:09:44.197Z,3.67
2019-05-05T09:12:10.679Z,4.43
2019-05-05T09:14:36.904Z,3.50
2019-05-05T09:17:04.465Z,2.87
2019-05-05T09:19:30.965Z,3.23
2019-05-05T09:21:57.191Z,2.87
2019-05-05T09:24:37.201Z,3.50
2019-05-05T09:27:14.016Z,3.93
2019-05-05T09:29:43.763Z,4.20
2019-05-05T09:32:09.882Z,3.83
2019-05-05T09:34:36.128Z,4.40
2019-05-05T09:37:03.750Z,3.50
2019-05-05T09:39:29.950Z,3.70
2019-05-05T09:41:56.136Z,3.77
2019-05-05T09:44:24.106Z,3.30
2019-05-05T09:46:50.391Z,2.97
2019-05-05T09:49:16.537Z,2.93
2019-05-05T09:51:44.012Z,2.17
2019-05-05T09:54:14.350Z,2.90
2019-05-05T09:56:38.699Z,3.23
2019-05-05T09:59:05.116Z,3.60
2019-05-05T10:01:33.784Z,4.43
2019-05-05T10:04:09.607Z,4.03
2019-05-05T10:06:37.321Z,3.83
2019-05-05T10:09:06.547Z,3.07
2019-05-05T10:11:32.791Z,3.47
2019-05-05T10:13:59.101Z,4.60
2019-05-05T10:16:25.341Z,4.27
2019-05-05T10:18:51.565Z,5.03
2019-05-05T10:21:17.957Z,4.60
2019-05-05T10:23:46.037Z,3.80
2019-05-05T10:26:12.185Z,4.50
2019-05-05T10:28:38.396Z,4.53
2019-05-05T10:31:04.766Z,5.07
2019-05-05T10:33:30.966Z,4.40
2019-05-05T10:35:57.182Z,3.87
2019-05-05T10:38:23.618Z,3.63
2019-05-05T10:40:49.838Z,3.20
2019-05-05T10:43:15.985Z,3.60
2019-05-05T10:45:43.920Z,3.63
2019-05-05T10:48:10.221Z,3.87
2019-05-05T10:50:36.473Z,4.33
2019-05-05T10:53:04.535Z,4.10
2019-05-05T10:55:31.310Z,4.07
2019-05-05T10:57:57.547Z,3.70
2019-05-05T11:00:36.290Z,3.83
2019-05-05T11:03:03.999Z,3.73
2019-05-05T11:05:30.312Z,3.60
2019-05-05T11:07:56.851Z,3.83
2019-05-05T11:10:33.793Z,4.27
2019-05-05T11:12:59.933Z,3.50
2019-05-05T11:15:26.161Z,3.30
2019-05-05T11:17:54.265Z,3.67
2019-05-05T11:20:20.738Z,3.87
2019-05-05T11:22:46.861Z,4.27
2019-05-05T11:25:13.878Z,3.83
2019-05-05T11:27:40.210Z,3.67
2019-05-05T11:30:11.572Z,3.87
2019-05-05T11:32:51.388Z,3.77
2019-05-05T11:35:19.499Z,3.93
2019-05-05T11:37:45.635Z,3.60
2019-05-05T11:40:13.518Z,3.63
2019-05-05T11:42:39.712Z,4.10
2019-05-05T11:45:05.928Z,3.80
2019-05-05T11:47:33.702Z,4.53
2019-05-05T11:49:59.918Z,3.97
2019-05-05T11:52:26.048Z,4.40
2019-05-05T11:54:54.284Z,4.20
2019-05-05T11:57:20.279Z,4.20
2019-05-05T11:59:46.496Z,3.40
2019-05-05T12:02:13.970Z,4.10
2019-05-05T12:04:40.287Z,3.50
2019-05-05T12:07:06.429Z,3.80
2019-05-05T12:09:34.497Z,3.20
2019-05-05T12:12:00.718Z,2.30
2019-05-05T12:14:28.892Z,2.87
2019-05-05T12:16:55.208Z,2.77
2019-05-05T12:19:21.496Z,2.83
2019-05-05T12:21:47.622Z,3.00
2019-05-05T12:24:15.748Z,3.17
2019-05-05T12:26:46.766Z,2.77
2019-05-05T12:29:14.068Z,3.03
2019-05-05T12:31:44.310Z,2.77
2019-05-05T12:34:10.231Z,2.57
2019-05-05T12:36:36.481Z,2.80
2019-05-05T12:39:05.833Z,2.73
2019-05-05T12:41:32.148Z,2.70
2019-05-05T12:43:58.460Z,3.33
2019-05-05T12:46:35.659Z,2.90
2019-05-05T12:49:04.742Z,3.23
2019-05-05T12:51:31.015Z,2.90
2019-05-05T12:53:57.236Z,3.00
2019-05-05T12:56:23.887Z,3.20
2019-05-05T12:58:50.110Z,3.00
2019-05-05T13:01:20.922Z,2.83
2019-05-05T13:03:47.055Z,3.77
2019-05-05T13:06:14.589Z,3.00
2019-05-05T13:08:40.982Z,2.97
2019-05-05T13:11:07.197Z,3.40
2019-05-05T13:13:34.583Z,3.93
2019-05-05T13:16:00.996Z,3.30
2019-05-05T13:18:27.330Z,3.13
2019-05-05T13:20:58.465Z,3.33
2019-05-05T13:23:29.366Z,3.77
2019-05-05T13:26:04.391Z,3.50
2019-05-05T13:28:30.640Z,3.77
2019-05-05T13:30:56.897Z,3.27
2019-05-05T13:33:24.681Z,3.60
2019-05-05T13:35:50.912Z,3.23
2019-05-05T13:38:17.054Z,3.50
2019-05-05T13:40:43.932Z,3.10
2019-05-05T13:43:10.225Z,2.77
2019-05-05T13:45:38.497Z,3.20
2019-05-05T13:48:04.906Z,2.83
2019-05-05T13:50:35.809Z,4.00
2019-05-05T13:53:03.847Z,3.23
2019-05-05T13:55:30.037Z,3.20
2019-05-05T13:57:56.220Z,2.50
2019-05-05T14:00:22.797Z,2.67
2019-05-05T14:02:48.993Z,3.03
2019-05-05T14:05:15.412Z,1.63
2019-05-05T14:07:43.474Z,2.13
2019-05-05T14:10:09.890Z,2.03
2019-05-05T14:12:36.090Z,1.70
2019-05-05T14:15:04.140Z,2.70
2019-05-05T14:17:30.420Z,4.00
2019-05-05T14:20:04.750Z,4.37
2019-05-05T14:22:24.669Z,4.50
2019-05-05T14:25:04.927Z,4.63
2019-05-05T14:27:31.115Z,5.03
2019-05-05T14:29:59.218Z,5.13
2019-05-05T14:32:27.347Z,4.13
2019-05-05T14:35:11.682Z,3.77
2019-05-05T14:37:45.564Z,4.10
2019-05-05T14:40:12.488Z,4.13
2019-05-05T14:42:38.722Z,3.60
2019-05-05T14:45:05.554Z,4.20
2019-05-05T14:47:33.463Z,3.67
2019-05-05T14:49:59.813Z,3.60
2019-05-05T14:52:25.915Z,3.63
2019-05-05T14:54:54.269Z,3.60
2019-05-05T14:57:22.117Z,3.07
2019-05-05T14:59:48.283Z,3.20
2019-05-05T15:02:14.536Z,3.30
2019-05-05T15:04:43.796Z,3.73
2019-05-05T15:07:30.276Z,2.90
2019-05-05T15:10:10.596Z,2.87
2019-05-05T15:12:41.569Z,3.03
2019-05-05T15:15:08.131Z,2.57
2019-05-05T15:17:34.497Z,2.13
2019-05-05T15:20:00.713Z,3.03
2019-05-05T15:22:26.909Z,3.30
2019-05-05T15:24:53.627Z,2.97
2019-05-05T15:27:19.997Z,2.50
2019-05-05T15:29:46.317Z,2.17
2019-05-05T15:32:14.776Z,2.40
2019-05-05T15:34:40.724Z,2.30
2019-05-05T15:37:06.946Z,2.73
2019-05-05T15:39:33.652Z,2.80
2019-05-05T15:42:00.036Z,2.67
2019-05-05T15:44:26.357Z,2.70
2019-05-05T15:46:55.713Z,2.90
2019-05-05T15:49:20.662Z,2.80
2019-05-05T15:51:46.855Z,3.40
2019-05-05T15:54:14.087Z,2.90
2019-05-05T15:56:40.321Z,2.50
2019-05-05T15:59:06.431Z,2.50
2019-05-05T16:01:34.455Z,2.80
2019-05-05T16:04:00.744Z,2.40
2019-05-05T16:06:26.861Z,2.87
2019-05-05T16:08:56.292Z,2.47
2019-05-05T16:11:23.245Z,2.60
2019-05-05T16:13:49.332Z,2.40
2019-05-05T16:16:17.467Z,2.73
2019-05-05T16:18:48.700Z,2.10
2019-05-05T16:21:28.774Z,2.33
2019-05-05T16:24:09.043Z,2.83
2019-05-05T16:26:35.203Z,2.30
2019-05-05T16:29:03.726Z,2.70
2019-05-05T16:31:29.932Z,2.80
2019-05-05T16:33:56.254Z,2.80
2019-05-05T16:36:24.242Z,3.03
2019-05-05T16:38:50.572Z,2.67
2019-05-05T16:41:16.811Z,3.67
2019-05-05T16:43:44.241Z,3.07
2019-05-05T16:46:10.677Z,2.30
2019-05-05T16:48:36.835Z,2.90
2019-05-05T16:51:05.020Z,3.00
2019-05-05T16:53:34.480Z,3.47
2019-05-05T16:56:01.014Z,2.40
2019-05-05T16:58:27.250Z,2.63
2019-05-05T17:00:57.630Z,3.10
2019-05-05T17:03:24.054Z,2.50
2019-05-05T17:05:50.273Z,2.80
2019-05-05T17:08:16.532Z,2.83
2019-05-05T17:10:43.530Z,2.13
2019-05-05T17:13:13.638Z,2.93
2019-05-05T17:15:44.711Z,2.17
2019-05-05T17:18:26.371Z,2.27
2019-05-05T17:21:05.551Z,2.37
2019-05-05T17:23:34.040Z,2.53
2019-05-05T17:25:59.938Z,2.17
2019-05-05T17:28:28.967Z,2.27
2019-05-05T17:30:55.344Z,2.07
2019-05-05T17:33:24.190Z,2.80
2019-05-05T17:35:53.931Z,2.67
2019-05-05T17:38:20.268Z,2.20
2019-05-05T17:40:48.413Z,3.10
2019-05-05T17:43:24.881Z,2.43
2019-05-05T17:46:01.357Z,1.87
2019-05-05T17:48:29.657Z,2.07
2019-05-05T17:51:06.644Z,2.10
2019-05-05T17:53:40.687Z,2.33
2019-05-05T17:56:08.806Z,3.60
2019-05-05T17:58:35.054Z,2.30
2019-05-05T18:01:01.308Z,2.80
2019-05-05T18:03:27.516Z,2.30
2019-05-05T18:05:58.457Z,2.23
2019-05-05T18:08:35.808Z,2.87
2019-05-05T18:11:04.007Z,2.70
2019-05-05T18:13:32.197Z,2.93
2019-05-05T18:15:59.660Z,3.47
2019-05-05T18:18:25.853Z,2.07
2019-05-05T18:20:54.095Z,2.17
2019-05-05T18:23:20.287Z,2.40
2019-05-05T18:25:46.522Z,2.27
2019-05-05T18:28:19.373Z,2.47
2019-05-05T18:30:40.902Z,2.50
2019-05-05T18:33:07.133Z,2.98
2019-05-05T18:35:33.920Z,3.07
2019-05-05T18:38:00.332Z,2.57
2019-05-05T18:40:26.576Z,2.73
2019-05-05T18:42:54.355Z,3.23
2019-05-05T18:45:21.064Z,2.30
2019-05-05T18:47:47.322Z,3.03
2019-05-05T18:50:13.684Z,3.27
2019-05-05T18:52:40.092Z,3.07
2019-05-05T18:55:06.280Z,2.60
2019-05-05T18:57:34.123Z,2.87
2019-05-05T19:00:00.648Z,2.53
2019-05-05T19:02:37.874Z,2.70
2019-05-05T19:05:07.574Z,2.70
2019-05-05T19:07:38.473Z,3.67
2019-05-05T19:10:05.784Z,2.80
2019-05-05T19:12:31.999Z,3.03
2019-05-05T19:14:58.148Z,2.90
2019-05-05T19:17:28.461Z,2.90
2019-05-05T19:19:55.390Z,3.00
2019-05-05T19:22:21.684Z,3.20
2019-05-05T19:24:47.903Z,2.80
2019-05-05T19:27:14.287Z,2.90
2019-05-05T19:29:40.456Z,3.63
2019-05-05T19:32:06.679Z,3.37
2019-05-05T19:37:05.831Z,2.87
2019-05-05T19:39:31.939Z,3.00
2019-05-05T19:41:58.196Z,3.70
2019-05-05T19:44:26.136Z,3.07
2019-05-05T19:47:00.230Z,2.70
2019-05-05T19:49:26.590Z,3.50
2019-05-05T19:51:54.153Z,3.17
2019-05-05T19:54:20.436Z,3.70
2019-05-05T19:56:46.816Z,3.30
2019-05-05T19:59:13.725Z,3.73
2019-05-05T20:01:40.029Z,3.27
2019-05-05T20:04:06.316Z,3.67
2019-05-05T20:06:32.637Z,3.30
2019-05-05T20:08:58.911Z,3.40
2019-05-05T20:11:25.089Z,2.73
2019-05-05T20:14:04.752Z,3.10
2019-05-05T20:16:36.528Z,3.23
2019-05-05T20:19:04.176Z,3.00
2019-05-05T20:21:30.490Z,3.27
2019-05-05T20:23:56.720Z,3.17
2019-05-05T20:26:23.907Z,2.83
2019-05-05T20:28:50.137Z,2.93
2019-05-05T20:31:16.399Z,3.50
2019-05-05T20:33:44.519Z,3.50
2019-05-05T20:36:14.517Z,3.63
2019-05-05T20:38:44.031Z,3.13
2019-05-05T20:41:11.430Z,3.80
2019-05-05T20:43:37.826Z,3.30
2019-05-05T20:46:04.517Z,3.27
2019-05-05T20:48:30.814Z,3.30
2019-05-05T20:50:57.006Z,2.93
2019-05-05T20:53:24.668Z,3.47
2019-05-05T20:55:50.940Z,3.30
2019-05-05T20:58:17.151Z,3.07
2019-05-05T21:00:44.206Z,3.00
2019-05-05T21:03:10.539Z,3.13
2019-05-05T21:05:36.654Z,3.13
2019-05-05T21:08:04.812Z,3.63
2019-05-05T21:13:20.762Z,3.17
2019-05-05T21:15:46.973Z,3.10
2019-05-05T21:18:14.326Z,3.07
2019-05-05T21:23:18.385Z,3.10
2019-05-05T21:25:55.370Z,3.27
2019-05-05T21:28:21.635Z,3.00
2019-05-05T21:30:47.849Z,3.20
2019-05-05T21:33:13.953Z,3.67
2019-05-05T21:35:40.094Z,3.50
2019-05-05T21:38:06.214Z,3.60
2019-05-05T21:40:34.499Z,3.07
2019-05-05T21:43:00.510Z,3.73
2019-05-05T21:45:26.732Z,3.20
2019-05-05T21:47:54.795Z,3.53
2019-05-05T21:50:39.114Z,3.33
2019-05-05T21:53:10.016Z,3.37
2019-05-05T21:55:44.129Z,3.33
2019-05-05T21:58:25.405Z,3.10
2019-05-05T22:00:54.797Z,3.60
2019-05-05T22:03:28.967Z,4.03
2019-05-05T22:05:56.075Z,3.53
2019-05-05T22:08:23.934Z,3.53
2019-05-05T22:10:50.139Z,3.43
2019-05-05T22:13:16.244Z,3.30
2019-05-05T22:15:43.683Z,3.40
2019-05-05T22:18:09.853Z,3.07
2019-05-05T22:20:37.985Z,3.50
2019-05-05T22:23:04.237Z,3.43
2019-05-05T22:25:30.465Z,3.07
2019-05-05T22:27:56.591Z,3.33
2019-05-05T22:30:23.703Z,3.83
2019-05-05T22:32:49.962Z,3.83
2019-05-05T22:35:16.311Z,3.77
2019-05-05T22:37:43.952Z,3.30
2019-05-05T22:40:20.700Z,3.80
2019-05-05T22:42:47.042Z,3.40
2019-05-05T22:45:14.235Z,3.70
2019-05-05T22:47:40.458Z,3.50
2019-05-05T22:50:06.814Z,3.67
2019-05-05T22:52:34.397Z,3.83
2019-05-05T22:55:00.738Z,3.37
2019-05-05T22:57:26.979Z,4.13
2019-05-05T22:59:54.107Z,3.67
2019-05-05T23:30:17.829Z,3.77
2019-05-05T23:32:45.164Z,3.70
2019-05-05T23:35:11.589Z,3.67
2019-05-05T23:37:37.833Z,4.00
2019-05-05T23:40:05.069Z,4.47
2019-05-05T23:42:33.251Z,4.20
2019-05-05T23:44:59.816Z,4.30
2019-05-05T23:47:26.334Z,3.27
2019-05-05T23:49:53.747Z,3.57
2019-05-05T23:52:20.530Z,3.77
2019-05-05T23:54:47.061Z,3.53
2019-05-05T23:57:13.797Z,3.63
2019-05-05T23:59:40.511Z,4.10
